UAL1544 KDEN-KTPA
Flight info
| Callsign | UAL1544 |
|---|---|
| Flight time | 2h 45m |
| Altitude | 33000 |
| Route | EPKEE7 DUUZE GCK TUL LIT STEIT ACORI MAATY5 |
| Aircraft | A21N/M-SDE2E3FGHIRWXY/LB1 |
Departure
| Time | 2026-05-05 16:42 |
|---|---|
| Airport | Denver International Airport (KDEN) |
Arrival
| Time | 2026-05-05 19:27 |
|---|---|
| Airport | Tampa International Airport (KTPA) |
| Time | Latitude | Longitude | Altitude | Speed | Heading |
|---|---|---|---|---|---|
| 2026-05-05 15:05 | 39.85806 | -104.67908 | 5371 ft | 0 kts | 14° |
| 2026-05-05 16:19 | 39.85805 | -104.67908 | 5371 ft | 1 kts | 14° |
| 2026-05-05 16:20 | 39.85757 | -104.67928 | 5371 ft | 4 kts | 36° |
| 2026-05-05 16:20 | 39.85738 | -104.67971 | 5371 ft | 0 kts | 90° |
| 2026-05-05 16:30 | 39.85738 | -104.67924 | 5371 ft | 8 kts | 90° |
| 2026-05-05 16:30 | 39.85737 | -104.67850 | 5368 ft | 9 kts | 90° |
| 2026-05-05 16:30 | 39.85737 | -104.67764 | 5368 ft | 10 kts | 89° |
| 2026-05-05 16:30 | 39.85737 | -104.67665 | 5371 ft | 11 kts | 91° |
| 2026-05-05 16:31 | 39.85735 | -104.67557 | 5370 ft | 13 kts | 91° |
| 2026-05-05 16:31 | 39.85734 | -104.67441 | 5369 ft | 14 kts | 91° |
| 2026-05-05 16:31 | 39.85733 | -104.67312 | 5371 ft | 15 kts | 91° |
| 2026-05-05 16:31 | 39.85732 | -104.67174 | 5369 ft | 16 kts | 90° |
| 2026-05-05 16:32 | 39.85731 | -104.67028 | 5369 ft | 17 kts | 91° |
| 2026-05-05 16:32 | 39.85730 | -104.66913 | 5371 ft | 11 kts | 91° |
| 2026-05-05 16:32 | 39.85729 | -104.66885 | 5371 ft | 0 kts | 92° |
| 2026-05-05 16:33 | 39.85728 | -104.66862 | 5368 ft | 3 kts | 96° |
| 2026-05-05 16:33 | 39.85712 | -104.66829 | 5371 ft | 6 kts | 138° |
| 2026-05-05 16:34 | 39.85672 | -104.66783 | 5369 ft | 10 kts | 120° |
| 2026-05-05 16:34 | 39.85653 | -104.66639 | 5371 ft | 18 kts | 88° |
| 2026-05-05 16:34 | 39.85674 | -104.66513 | 5369 ft | 6 kts | 71° |
| 2026-05-05 16:34 | 39.85687 | -104.66456 | 5368 ft | 7 kts | 77° |
| 2026-05-05 16:35 | 39.85693 | -104.66410 | 5371 ft | 0 kts | 81° |
| 2026-05-05 16:35 | 39.85693 | -104.66408 | 5371 ft | 4 kts | 82° |
| 2026-05-05 16:35 | 39.85687 | -104.66293 | 5371 ft | 15 kts | 75° |
| 2026-05-05 16:36 | 39.85766 | -104.66228 | 5368 ft | 16 kts | 358° |
| 2026-05-05 16:36 | 39.85896 | -104.66228 | 5370 ft | 23 kts | 2° |
| 2026-05-05 16:36 | 39.86062 | -104.66222 | 5370 ft | 24 kts | 359° |
| 2026-05-05 16:36 | 39.86230 | -104.66220 | 5368 ft | 25 kts | 0° |
| 2026-05-05 16:37 | 39.86402 | -104.66238 | 5369 ft | 26 kts | 0° |
| 2026-05-05 16:37 | 39.86588 | -104.66215 | 5369 ft | 27 kts | 359° |
| 2026-05-05 16:37 | 39.86774 | -104.66219 | 5371 ft | 27 kts | 0° |
| 2026-05-05 16:37 | 39.86968 | -104.66216 | 5369 ft | 28 kts | 0° |
| 2026-05-05 16:38 | 39.87167 | -104.66218 | 5370 ft | 29 kts | 0° |
| 2026-05-05 16:38 | 39.87374 | -104.66213 | 5369 ft | 30 kts | 1° |
| 2026-05-05 16:38 | 39.87586 | -104.66210 | 5369 ft | 31 kts | 360° |
| 2026-05-05 16:38 | 39.87637 | -104.66207 | 5371 ft | 0 kts | 3° |
| 2026-05-05 16:39 | 39.87665 | -104.66207 | 5368 ft | 6 kts | 356° |
| 2026-05-05 16:40 | 39.87712 | -104.66209 | 5368 ft | 8 kts | 358° |
| 2026-05-05 16:40 | 39.87757 | -104.66187 | 5369 ft | 8 kts | 76° |
| 2026-05-05 16:40 | 39.87762 | -104.66108 | 5371 ft | 9 kts | 91° |
| 2026-05-05 16:40 | 39.87759 | -104.65898 | 5370 ft | 52 kts | 90° |
| 2026-05-05 16:41 | 39.87753 | -104.65117 | 5370 ft | 118 kts | 90° |
| 2026-05-05 16:41 | 39.87743 | -104.63832 | 5367 ft | 162 kts | 91° |
| 2026-05-05 16:41 | 39.87724 | -104.62213 | 5479 ft | 186 kts | 91° |
| 2026-05-05 16:41 | 39.87526 | -104.60565 | 5994 ft | 186 kts | 111° |
| 2026-05-05 16:42 | 39.87118 | -104.58980 | 6486 ft | 186 kts | 96° |
| 2026-05-05 16:42 | 39.86850 | -104.57250 | 6733 ft | 204 kts | 108° |
| 2026-05-05 16:42 | 39.86506 | -104.56075 | 6944 ft | 215 kts | 110° |
| 2026-05-05 16:42 | 39.85904 | -104.54198 | 7176 ft | 238 kts | 111° |
| 2026-05-05 16:43 | 39.85219 | -104.52106 | 7446 ft | 260 kts | 112° |
| 2026-05-05 16:43 | 39.84487 | -104.49874 | 7900 ft | 273 kts | 111° |
| 2026-05-05 16:43 | 39.83731 | -104.47577 | 8548 ft | 278 kts | 112° |
| 2026-05-05 16:43 | 39.82961 | -104.45259 | 9262 ft | 280 kts | 111° |
| 2026-05-05 16:44 | 39.82184 | -104.42915 | 9773 ft | 283 kts | 112° |
| 2026-05-05 16:44 | 39.81398 | -104.40542 | 10014 ft | 294 kts | 112° |
| 2026-05-05 16:44 | 39.80547 | -104.37993 | 10131 ft | 318 kts | 113° |
| 2026-05-05 16:44 | 39.79624 | -104.35333 | 10660 ft | 326 kts | 114° |
| 2026-05-05 16:45 | 39.78683 | -104.32637 | 11312 ft | 329 kts | 114° |
| 2026-05-05 16:45 | 39.77740 | -104.29936 | 11977 ft | 332 kts | 114° |
| 2026-05-05 16:45 | 39.76789 | -104.27201 | 12657 ft | 334 kts | 115° |
| 2026-05-05 16:45 | 39.75824 | -104.24435 | 13284 ft | 338 kts | 115° |
| 2026-05-05 16:46 | 39.74847 | -104.21631 | 13900 ft | 342 kts | 115° |
| 2026-05-05 16:46 | 39.73858 | -104.18801 | 14454 ft | 347 kts | 116° |
| 2026-05-05 16:47 | 39.70672 | -104.09737 | 15839 ft | 371 kts | 116° |
| 2026-05-05 16:47 | 39.69588 | -104.06670 | 16361 ft | 376 kts | 116° |
| 2026-05-05 16:47 | 39.68861 | -104.04615 | 16698 ft | 379 kts | 117° |
| 2026-05-05 16:49 | 39.60997 | -103.84175 | 19788 ft | 407 kts | 121° |
| 2026-05-05 16:49 | 39.59669 | -103.80910 | 20272 ft | 410 kts | 119° |
| 2026-05-05 16:49 | 39.58548 | -103.77489 | 20762 ft | 415 kts | 113° |
| 2026-05-05 16:49 | 39.57549 | -103.73958 | 21233 ft | 418 kts | 112° |
| 2026-05-05 16:50 | 39.56559 | -103.70400 | 21677 ft | 421 kts | 112° |
| 2026-05-05 16:50 | 39.55563 | -103.66832 | 22111 ft | 423 kts | 112° |
| 2026-05-05 16:50 | 39.54549 | -103.63229 | 22529 ft | 426 kts | 113° |
| 2026-05-05 16:50 | 39.53523 | -103.59602 | 22945 ft | 429 kts | 113° |
| 2026-05-05 16:51 | 39.52490 | -103.55964 | 23358 ft | 432 kts | 113° |
| 2026-05-05 16:51 | 39.51464 | -103.52351 | 23753 ft | 435 kts | 113° |
| 2026-05-05 16:51 | 39.50413 | -103.48655 | 24142 ft | 437 kts | 113° |
| 2026-05-05 16:51 | 39.49357 | -103.44949 | 24499 ft | 441 kts | 114° |
| 2026-05-05 16:52 | 39.48290 | -103.41211 | 24811 ft | 444 kts | 114° |
| 2026-05-05 16:52 | 39.47215 | -103.37441 | 25111 ft | 449 kts | 114° |
| 2026-05-05 16:52 | 39.46129 | -103.33640 | 25398 ft | 453 kts | 114° |
| 2026-05-05 16:52 | 39.45030 | -103.29805 | 25679 ft | 457 kts | 115° |
| 2026-05-05 16:53 | 39.43917 | -103.25936 | 25959 ft | 461 kts | 115° |
| 2026-05-05 16:53 | 39.42796 | -103.22035 | 26239 ft | 464 kts | 115° |
| 2026-05-05 16:53 | 39.41662 | -103.18101 | 26501 ft | 468 kts | 115° |
| 2026-05-05 16:53 | 39.40521 | -103.14140 | 26766 ft | 472 kts | 116° |
| 2026-05-05 16:54 | 39.39370 | -103.10149 | 27031 ft | 475 kts | 116° |
| 2026-05-05 16:54 | 39.38210 | -103.06127 | 27275 ft | 479 kts | 116° |
| 2026-05-05 16:54 | 39.37055 | -103.02139 | 27504 ft | 482 kts | 116° |
| 2026-05-05 16:54 | 39.35877 | -102.98066 | 27707 ft | 485 kts | 117° |
| 2026-05-05 16:55 | 39.34604 | -102.94023 | 27923 ft | 484 kts | 122° |
| 2026-05-05 16:55 | 39.33105 | -102.90117 | 28147 ft | 486 kts | 124° |
| 2026-05-05 16:55 | 39.31567 | -102.86212 | 28376 ft | 489 kts | 124° |
| 2026-05-05 16:55 | 39.30017 | -102.82293 | 28582 ft | 493 kts | 125° |
| 2026-05-05 16:56 | 39.28455 | -102.78345 | 28818 ft | 495 kts | 125° |
| 2026-05-05 16:56 | 39.26891 | -102.74371 | 29031 ft | 497 kts | 125° |
| 2026-05-05 16:56 | 39.25317 | -102.70375 | 29256 ft | 500 kts | 125° |
| 2026-05-05 16:56 | 39.23738 | -102.66362 | 29480 ft | 503 kts | 126° |
| 2026-05-05 16:57 | 39.22169 | -102.62384 | 29687 ft | 506 kts | 126° |
| 2026-05-05 16:57 | 39.20569 | -102.58336 | 29882 ft | 509 kts | 126° |
| 2026-05-05 16:57 | 39.18950 | -102.54262 | 30049 ft | 512 kts | 126° |
| 2026-05-05 16:57 | 39.17325 | -102.50163 | 30228 ft | 515 kts | 126° |
| 2026-05-05 16:58 | 39.15697 | -102.46035 | 30422 ft | 516 kts | 126° |
| 2026-05-05 16:58 | 39.14071 | -102.41905 | 30587 ft | 518 kts | 126° |
| 2026-05-05 16:58 | 39.12422 | -102.37751 | 30787 ft | 521 kts | 126° |
| 2026-05-05 16:58 | 39.10760 | -102.33610 | 31013 ft | 522 kts | 127° |
| 2026-05-05 16:59 | 39.09088 | -102.29453 | 31227 ft | 523 kts | 126° |
| 2026-05-05 16:59 | 39.07410 | -102.25285 | 31498 ft | 525 kts | 127° |
| 2026-05-05 16:59 | 39.05729 | -102.21121 | 31796 ft | 523 kts | 127° |
| 2026-05-05 16:59 | 39.04070 | -102.17021 | 32029 ft | 524 kts | 127° |
| 2026-05-05 17:00 | 39.02388 | -102.12860 | 32240 ft | 524 kts | 127° |
| 2026-05-05 17:00 | 39.00709 | -102.08693 | 32435 ft | 525 kts | 127° |
| 2026-05-05 17:00 | 38.99029 | -102.04528 | 32651 ft | 525 kts | 127° |
| 2026-05-05 17:00 | 38.97344 | -102.00370 | 32861 ft | 525 kts | 127° |
| 2026-05-05 17:01 | 38.95653 | -101.96202 | 33047 ft | 526 kts | 127° |
| 2026-05-05 17:01 | 38.93958 | -101.92026 | 33101 ft | 528 kts | 126° |
| 2026-05-05 17:01 | 38.90564 | -101.83657 | 33077 ft | 528 kts | 126° |
| 2026-05-05 17:02 | 38.87153 | -101.75292 | 33063 ft | 528 kts | 127° |
| 2026-05-05 17:02 | 38.85272 | -101.71285 | 33054 ft | 516 kts | 136° |
| 2026-05-05 17:02 | 38.82990 | -101.67839 | 33061 ft | 498 kts | 148° |
| 2026-05-05 17:03 | 38.77809 | -101.62248 | 33059 ft | 488 kts | 154° |
| 2026-05-05 17:03 | 38.72510 | -101.56761 | 33052 ft | 490 kts | 153° |
| 2026-05-05 17:04 | 38.67265 | -101.51197 | 33049 ft | 490 kts | 153° |
| 2026-05-05 17:04 | 38.61998 | -101.45621 | 33060 ft | 490 kts | 153° |
| 2026-05-05 17:05 | 38.56736 | -101.40063 | 33056 ft | 490 kts | 153° |
| 2026-05-05 17:05 | 38.51480 | -101.34525 | 33050 ft | 489 kts | 153° |
| 2026-05-05 17:06 | 38.46215 | -101.28992 | 33051 ft | 491 kts | 153° |
| 2026-05-05 17:06 | 38.40938 | -101.23461 | 33050 ft | 491 kts | 153° |
| 2026-05-05 17:07 | 38.35655 | -101.17925 | 33050 ft | 491 kts | 153° |
| 2026-05-05 17:07 | 38.30410 | -101.12444 | 33052 ft | 491 kts | 153° |
| 2026-05-05 17:08 | 38.25125 | -101.06922 | 33050 ft | 490 kts | 153° |
| 2026-05-05 17:08 | 38.19830 | -101.01420 | 33050 ft | 492 kts | 153° |
| 2026-05-05 17:09 | 38.15412 | -100.96838 | 33051 ft | 492 kts | 153° |
| 2026-05-05 17:09 | 38.10098 | -100.91333 | 33042 ft | 493 kts | 153° |
| 2026-05-05 17:10 | 38.04796 | -100.85832 | 33034 ft | 493 kts | 153° |
| 2026-05-05 17:10 | 37.99474 | -100.80336 | 33027 ft | 494 kts | 153° |
| 2026-05-05 17:11 | 37.94188 | -100.74711 | 33010 ft | 504 kts | 146° |
| 2026-05-05 17:11 | 37.91873 | -100.71286 | 33005 ft | 521 kts | 134° |
| 2026-05-05 17:11 | 37.90072 | -100.67238 | 33010 ft | 535 kts | 121° |
| 2026-05-05 17:12 | 37.87299 | -100.58434 | 33014 ft | 539 kts | 118° |
| 2026-05-05 17:12 | 37.84539 | -100.49670 | 33016 ft | 539 kts | 119° |
| 2026-05-05 17:13 | 37.81694 | -100.40907 | 33014 ft | 538 kts | 119° |
| 2026-05-05 17:13 | 37.78845 | -100.32160 | 33010 ft | 538 kts | 119° |
| 2026-05-05 17:14 | 37.75993 | -100.23403 | 33002 ft | 539 kts | 119° |
| 2026-05-05 17:14 | 37.73141 | -100.14650 | 32999 ft | 538 kts | 119° |
| 2026-05-05 17:15 | 37.70304 | -100.05973 | 33000 ft | 538 kts | 119° |
| 2026-05-05 17:15 | 37.67434 | -99.97225 | 32998 ft | 538 kts | 119° |
| 2026-05-05 17:16 | 37.64561 | -99.88512 | 32999 ft | 539 kts | 119° |
| 2026-05-05 17:16 | 37.61669 | -99.79785 | 32998 ft | 538 kts | 119° |
| 2026-05-05 17:17 | 37.58794 | -99.71117 | 33000 ft | 539 kts | 119° |
| 2026-05-05 17:17 | 37.55877 | -99.62427 | 32979 ft | 539 kts | 119° |
| 2026-05-05 17:18 | 37.52975 | -99.53679 | 32999 ft | 539 kts | 119° |
| 2026-05-05 17:18 | 37.50080 | -99.44973 | 32990 ft | 539 kts | 119° |
| 2026-05-05 17:19 | 37.47168 | -99.36295 | 32967 ft | 540 kts | 119° |
| 2026-05-05 17:19 | 37.44239 | -99.27607 | 32977 ft | 540 kts | 119° |
| 2026-05-05 17:20 | 37.41306 | -99.18912 | 32971 ft | 540 kts | 119° |
| 2026-05-05 17:20 | 37.38357 | -99.10198 | 32963 ft | 541 kts | 119° |
| 2026-05-05 17:21 | 37.35408 | -99.01516 | 32970 ft | 540 kts | 119° |
| 2026-05-05 17:22 | 37.30960 | -98.88462 | 32975 ft | 542 kts | 119° |
| 2026-05-05 17:22 | 37.27985 | -98.79772 | 32969 ft | 542 kts | 119° |
| 2026-05-05 17:23 | 37.25017 | -98.71111 | 32947 ft | 542 kts | 119° |
| 2026-05-05 17:23 | 37.22026 | -98.62423 | 32955 ft | 542 kts | 119° |
| 2026-05-05 17:24 | 37.19025 | -98.53727 | 32959 ft | 542 kts | 119° |
| 2026-05-05 17:24 | 37.16019 | -98.45042 | 32946 ft | 542 kts | 119° |
| 2026-05-05 17:25 | 37.13015 | -98.36386 | 32935 ft | 542 kts | 119° |
| 2026-05-05 17:25 | 37.09993 | -98.27705 | 32934 ft | 543 kts | 119° |
| 2026-05-05 17:26 | 37.06995 | -98.19103 | 32922 ft | 543 kts | 119° |
| 2026-05-05 17:26 | 37.03963 | -98.10450 | 32917 ft | 543 kts | 119° |
| 2026-05-05 17:27 | 37.00926 | -98.01798 | 32920 ft | 543 kts | 119° |
| 2026-05-05 17:27 | 36.97877 | -97.93127 | 32921 ft | 544 kts | 119° |
| 2026-05-05 17:28 | 36.94823 | -97.84485 | 32909 ft | 544 kts | 119° |
| 2026-05-05 17:28 | 36.91754 | -97.75817 | 32918 ft | 544 kts | 119° |
| 2026-05-05 17:29 | 36.88681 | -97.67165 | 32915 ft | 544 kts | 119° |
| 2026-05-05 17:29 | 36.85608 | -97.58536 | 32901 ft | 543 kts | 119° |
| 2026-05-05 17:30 | 36.82534 | -97.49923 | 32897 ft | 543 kts | 119° |
| 2026-05-05 17:30 | 36.79453 | -97.41326 | 32898 ft | 543 kts | 119° |
| 2026-05-05 17:31 | 36.76362 | -97.32732 | 32912 ft | 543 kts | 119° |
| 2026-05-05 17:31 | 36.73287 | -97.24183 | 32896 ft | 543 kts | 119° |
| 2026-05-05 17:32 | 36.70191 | -97.15606 | 32873 ft | 543 kts | 120° |
| 2026-05-05 17:32 | 36.67083 | -97.07033 | 32857 ft | 543 kts | 120° |
| 2026-05-05 17:33 | 36.63972 | -96.98462 | 32841 ft | 543 kts | 120° |
| 2026-05-05 17:33 | 36.60852 | -96.89901 | 32852 ft | 541 kts | 120° |
| 2026-05-05 17:34 | 36.57747 | -96.81400 | 32855 ft | 543 kts | 119° |
| 2026-05-05 17:34 | 36.54599 | -96.72804 | 32843 ft | 542 kts | 119° |
| 2026-05-05 17:35 | 36.51490 | -96.64325 | 32838 ft | 543 kts | 120° |
| 2026-05-05 17:35 | 36.48343 | -96.55807 | 32839 ft | 542 kts | 120° |
| 2026-05-05 17:36 | 36.45185 | -96.47288 | 32831 ft | 543 kts | 120° |
| 2026-05-05 17:36 | 36.42061 | -96.38806 | 32838 ft | 542 kts | 120° |
| 2026-05-05 17:37 | 36.38909 | -96.30298 | 32826 ft | 542 kts | 120° |
| 2026-05-05 17:37 | 36.35747 | -96.21809 | 32810 ft | 542 kts | 120° |
| 2026-05-05 17:38 | 36.32574 | -96.13346 | 32821 ft | 542 kts | 120° |
| 2026-05-05 17:38 | 36.29390 | -96.04847 | 32814 ft | 542 kts | 120° |
| 2026-05-05 17:39 | 36.26218 | -95.96370 | 32812 ft | 541 kts | 120° |
| 2026-05-05 17:39 | 36.23049 | -95.87933 | 32797 ft | 540 kts | 120° |
| 2026-05-05 17:40 | 36.19854 | -95.79510 | 32805 ft | 540 kts | 120° |
| 2026-05-05 17:40 | 36.16787 | -95.71053 | 32793 ft | 541 kts | 118° |
| 2026-05-05 17:41 | 36.13715 | -95.62482 | 32787 ft | 540 kts | 119° |
| 2026-05-05 17:41 | 36.10662 | -95.54045 | 32779 ft | 540 kts | 118° |
| 2026-05-05 17:42 | 36.07589 | -95.45590 | 32787 ft | 539 kts | 119° |
| 2026-05-05 17:42 | 36.04507 | -95.37126 | 32785 ft | 539 kts | 119° |
| 2026-05-05 17:43 | 36.01427 | -95.28671 | 32772 ft | 537 kts | 119° |
| 2026-05-05 17:43 | 35.98352 | -95.20283 | 32768 ft | 537 kts | 119° |
| 2026-05-05 17:44 | 35.95256 | -95.11861 | 32765 ft | 537 kts | 118° |
| 2026-05-05 17:44 | 35.92188 | -95.03521 | 32759 ft | 536 kts | 119° |
| 2026-05-05 17:45 | 35.89105 | -94.95168 | 32770 ft | 535 kts | 119° |
| 2026-05-05 17:45 | 35.86022 | -94.86837 | 32768 ft | 533 kts | 119° |
| 2026-05-05 17:46 | 35.82941 | -94.78535 | 32765 ft | 533 kts | 119° |
| 2026-05-05 17:46 | 35.79858 | -94.70240 | 32756 ft | 532 kts | 118° |
| 2026-05-05 17:47 | 35.76782 | -94.61989 | 32751 ft | 531 kts | 119° |
| 2026-05-05 17:47 | 35.73692 | -94.53732 | 32751 ft | 530 kts | 119° |
| 2026-05-05 17:48 | 35.70599 | -94.45481 | 32761 ft | 529 kts | 119° |
| 2026-05-05 17:48 | 35.67504 | -94.37255 | 32751 ft | 528 kts | 119° |
| 2026-05-05 17:49 | 35.64424 | -94.29074 | 32754 ft | 527 kts | 119° |
| 2026-05-05 17:49 | 35.61337 | -94.20910 | 32762 ft | 527 kts | 119° |
| 2026-05-05 17:50 | 35.58243 | -94.12739 | 32757 ft | 527 kts | 119° |
| 2026-05-05 17:50 | 35.55166 | -94.04628 | 32760 ft | 527 kts | 119° |
| 2026-05-05 17:51 | 35.52064 | -93.96484 | 32761 ft | 527 kts | 119° |
| 2026-05-05 17:51 | 35.48949 | -93.88328 | 32760 ft | 527 kts | 119° |
| 2026-05-05 17:52 | 35.45830 | -93.80175 | 32758 ft | 527 kts | 119° |
| 2026-05-05 17:52 | 35.42709 | -93.72042 | 32759 ft | 527 kts | 119° |
| 2026-05-05 17:53 | 35.39576 | -93.63890 | 32767 ft | 528 kts | 119° |
| 2026-05-05 17:53 | 35.36452 | -93.55787 | 32772 ft | 529 kts | 119° |
| 2026-05-05 17:54 | 35.33294 | -93.47621 | 32777 ft | 530 kts | 119° |
| 2026-05-05 17:54 | 35.30133 | -93.39472 | 32780 ft | 530 kts | 119° |
| 2026-05-05 17:55 | 35.26955 | -93.31298 | 32780 ft | 531 kts | 119° |
| 2026-05-05 17:55 | 35.23780 | -93.23138 | 32779 ft | 532 kts | 119° |
| 2026-05-05 17:56 | 35.21131 | -93.16353 | 32778 ft | 532 kts | 119° |
| 2026-05-05 17:56 | 35.17404 | -93.06890 | 32782 ft | 533 kts | 118° |
| 2026-05-05 17:57 | 35.14213 | -92.98711 | 32782 ft | 534 kts | 118° |
| 2026-05-05 17:57 | 35.11524 | -92.91854 | 32789 ft | 533 kts | 119° |
| 2026-05-05 17:58 | 35.08329 | -92.83745 | 32757 ft | 533 kts | 118° |
| 2026-05-05 17:58 | 35.05097 | -92.75571 | 32789 ft | 534 kts | 119° |
| 2026-05-05 17:59 | 35.01864 | -92.67415 | 32798 ft | 534 kts | 118° |
| 2026-05-05 17:59 | 34.98607 | -92.59232 | 32797 ft | 535 kts | 118° |
| 2026-05-05 18:00 | 34.95359 | -92.51060 | 32808 ft | 535 kts | 118° |
| 2026-05-05 18:00 | 34.92106 | -92.42915 | 32798 ft | 535 kts | 119° |
| 2026-05-05 18:01 | 34.88866 | -92.34818 | 32818 ft | 535 kts | 119° |
| 2026-05-05 18:01 | 34.85591 | -92.26639 | 32812 ft | 535 kts | 118° |
| 2026-05-05 18:02 | 34.82321 | -92.18526 | 32823 ft | 535 kts | 119° |
| 2026-05-05 18:02 | 34.78880 | -92.10505 | 32828 ft | 535 kts | 122° |
| 2026-05-05 18:03 | 34.75242 | -92.02584 | 32818 ft | 535 kts | 122° |
| 2026-05-05 18:03 | 34.71621 | -91.94690 | 32827 ft | 535 kts | 122° |
| 2026-05-05 18:04 | 34.67998 | -91.86793 | 32835 ft | 535 kts | 122° |
| 2026-05-05 18:04 | 34.64360 | -91.78878 | 32842 ft | 535 kts | 122° |
| 2026-05-05 18:05 | 34.60748 | -91.71035 | 32837 ft | 536 kts | 122° |
| 2026-05-05 18:05 | 34.57103 | -91.63142 | 32843 ft | 536 kts | 122° |
| 2026-05-05 18:06 | 34.53455 | -91.55259 | 32858 ft | 537 kts | 122° |
| 2026-05-05 18:06 | 34.49783 | -91.47331 | 32860 ft | 536 kts | 122° |
| 2026-05-05 18:07 | 34.46148 | -91.39514 | 32854 ft | 536 kts | 122° |
| 2026-05-05 18:07 | 34.42473 | -91.31634 | 32859 ft | 536 kts | 122° |
| 2026-05-05 18:08 | 34.38784 | -91.23728 | 32864 ft | 542 kts | 122° |
| 2026-05-05 18:08 | 34.35062 | -91.15772 | 32864 ft | 544 kts | 122° |
| 2026-05-05 18:09 | 34.31353 | -91.07865 | 32866 ft | 543 kts | 122° |
| 2026-05-05 18:09 | 34.27616 | -90.99910 | 32866 ft | 543 kts | 122° |
| 2026-05-05 18:10 | 34.23894 | -90.92009 | 32878 ft | 542 kts | 122° |
| 2026-05-05 18:10 | 34.20154 | -90.84094 | 32878 ft | 541 kts | 122° |
| 2026-05-05 18:11 | 34.16404 | -90.76187 | 32883 ft | 542 kts | 122° |
| 2026-05-05 18:11 | 34.12655 | -90.68277 | 32885 ft | 542 kts | 121° |
| 2026-05-05 18:12 | 34.08909 | -90.60391 | 32900 ft | 542 kts | 121° |
| 2026-05-05 18:12 | 34.05157 | -90.52518 | 32886 ft | 541 kts | 121° |
| 2026-05-05 18:13 | 34.01401 | -90.44647 | 32909 ft | 541 kts | 122° |
| 2026-05-05 18:13 | 33.97633 | -90.36770 | 32888 ft | 542 kts | 121° |
| 2026-05-05 18:14 | 33.93865 | -90.28918 | 32899 ft | 543 kts | 121° |
| 2026-05-05 18:14 | 33.90098 | -90.21083 | 32909 ft | 543 kts | 121° |
| 2026-05-05 18:15 | 33.86315 | -90.13232 | 32898 ft | 543 kts | 121° |
| 2026-05-05 18:15 | 33.82518 | -90.05362 | 32909 ft | 543 kts | 121° |
| 2026-05-05 18:16 | 33.78707 | -89.97483 | 32914 ft | 542 kts | 121° |
| 2026-05-05 18:16 | 33.74925 | -89.89688 | 32936 ft | 542 kts | 122° |
| 2026-05-05 18:17 | 33.71123 | -89.81864 | 32936 ft | 542 kts | 122° |
| 2026-05-05 18:17 | 33.67311 | -89.74039 | 32936 ft | 542 kts | 121° |
| 2026-05-05 18:18 | 33.63513 | -89.66260 | 32933 ft | 540 kts | 121° |
| 2026-05-05 18:18 | 33.59723 | -89.58505 | 32941 ft | 540 kts | 121° |
| 2026-05-05 18:19 | 33.55920 | -89.50749 | 32941 ft | 540 kts | 122° |
| 2026-05-05 18:19 | 33.52110 | -89.43007 | 32953 ft | 539 kts | 122° |
| 2026-05-05 18:20 | 33.48301 | -89.35270 | 32961 ft | 538 kts | 122° |
| 2026-05-05 18:20 | 33.44497 | -89.27553 | 32959 ft | 537 kts | 122° |
| 2026-05-05 18:21 | 33.40695 | -89.19857 | 32971 ft | 537 kts | 122° |
| 2026-05-05 18:21 | 33.36895 | -89.12222 | 32967 ft | 536 kts | 122° |
| 2026-05-05 18:22 | 33.33084 | -89.04560 | 32969 ft | 535 kts | 122° |
| 2026-05-05 18:22 | 33.29292 | -88.96925 | 32975 ft | 535 kts | 122° |
| 2026-05-05 18:23 | 33.25484 | -88.89289 | 32997 ft | 534 kts | 122° |
| 2026-05-05 18:23 | 33.21680 | -88.81674 | 32989 ft | 534 kts | 122° |
| 2026-05-05 18:24 | 33.17903 | -88.74124 | 32983 ft | 533 kts | 122° |
| 2026-05-05 18:24 | 33.14091 | -88.66511 | 32993 ft | 533 kts | 122° |
| 2026-05-05 18:25 | 33.10283 | -88.58930 | 33005 ft | 533 kts | 122° |
| 2026-05-05 18:25 | 33.06471 | -88.51370 | 33005 ft | 533 kts | 122° |
| 2026-05-05 18:26 | 33.02648 | -88.43785 | 33004 ft | 533 kts | 122° |
| 2026-05-05 18:26 | 32.98842 | -88.36266 | 33024 ft | 532 kts | 122° |
| 2026-05-05 18:27 | 32.95016 | -88.28713 | 33018 ft | 533 kts | 122° |
| 2026-05-05 18:27 | 32.91165 | -88.21141 | 33022 ft | 533 kts | 122° |
| 2026-05-05 18:28 | 32.85404 | -88.09829 | 33029 ft | 533 kts | 122° |
| 2026-05-05 18:28 | 32.81543 | -88.02263 | 33031 ft | 534 kts | 122° |
| 2026-05-05 18:29 | 32.77696 | -87.94756 | 33036 ft | 532 kts | 122° |
| 2026-05-05 18:29 | 32.73851 | -87.87249 | 33032 ft | 532 kts | 121° |
| 2026-05-05 18:30 | 32.70218 | -87.79572 | 33036 ft | 532 kts | 119° |
| 2026-05-05 18:30 | 32.66644 | -87.71915 | 33035 ft | 533 kts | 119° |
| 2026-05-05 18:31 | 32.63038 | -87.64208 | 33027 ft | 534 kts | 119° |
| 2026-05-05 18:31 | 32.59422 | -87.56513 | 33027 ft | 534 kts | 119° |
| 2026-05-05 18:32 | 32.55805 | -87.48834 | 33025 ft | 533 kts | 120° |
| 2026-05-05 18:32 | 32.52183 | -87.41176 | 33054 ft | 532 kts | 119° |
| 2026-05-05 18:33 | 32.48589 | -87.33543 | 33043 ft | 533 kts | 120° |
| 2026-05-05 18:33 | 32.44974 | -87.25901 | 33031 ft | 533 kts | 120° |
| 2026-05-05 18:34 | 32.41348 | -87.18265 | 33026 ft | 531 kts | 120° |
| 2026-05-05 18:34 | 32.37729 | -87.10622 | 33027 ft | 531 kts | 120° |
| 2026-05-05 18:35 | 32.34098 | -87.02995 | 33026 ft | 531 kts | 120° |
| 2026-05-05 18:35 | 32.30470 | -86.95424 | 33030 ft | 531 kts | 120° |
| 2026-05-05 18:36 | 32.26835 | -86.87847 | 33029 ft | 531 kts | 120° |
| 2026-05-05 18:36 | 32.23206 | -86.80276 | 33029 ft | 531 kts | 120° |
| 2026-05-05 18:37 | 32.19548 | -86.72668 | 33023 ft | 530 kts | 120° |
| 2026-05-05 18:37 | 32.15915 | -86.65105 | 33028 ft | 530 kts | 120° |
| 2026-05-05 18:38 | 32.12261 | -86.57532 | 33034 ft | 530 kts | 120° |
| 2026-05-05 18:38 | 32.08607 | -86.49993 | 33046 ft | 530 kts | 120° |
| 2026-05-05 18:39 | 32.04967 | -86.42485 | 33047 ft | 530 kts | 120° |
| 2026-05-05 18:39 | 32.01307 | -86.34957 | 33053 ft | 530 kts | 120° |
| 2026-05-05 18:40 | 31.97642 | -86.27416 | 33062 ft | 530 kts | 120° |
| 2026-05-05 18:40 | 31.93970 | -86.19878 | 33067 ft | 529 kts | 120° |
| 2026-05-05 18:41 | 31.90298 | -86.12353 | 33072 ft | 529 kts | 120° |
| 2026-05-05 18:41 | 31.86634 | -86.04847 | 33076 ft | 529 kts | 120° |
| 2026-05-05 18:42 | 31.82954 | -85.97342 | 33085 ft | 529 kts | 120° |
| 2026-05-05 18:42 | 31.79301 | -85.89906 | 33086 ft | 529 kts | 121° |
| 2026-05-05 18:43 | 31.74785 | -85.83129 | 33077 ft | 524 kts | 141° |
| 2026-05-05 18:43 | 31.69310 | -85.77504 | 33075 ft | 521 kts | 143° |
| 2026-05-05 18:44 | 31.63835 | -85.71940 | 33068 ft | 521 kts | 142° |
| 2026-05-05 18:44 | 31.59298 | -85.67271 | 33067 ft | 522 kts | 142° |
| 2026-05-05 18:45 | 31.53838 | -85.61645 | 33073 ft | 521 kts | 142° |
| 2026-05-05 18:45 | 31.48371 | -85.56029 | 33084 ft | 522 kts | 142° |
| 2026-05-05 18:46 | 31.42910 | -85.50434 | 33085 ft | 521 kts | 142° |
| 2026-05-05 18:46 | 31.37481 | -85.44876 | 33095 ft | 521 kts | 142° |
| 2026-05-05 18:47 | 31.32029 | -85.39302 | 33106 ft | 521 kts | 142° |
| 2026-05-05 18:47 | 31.26562 | -85.33727 | 33115 ft | 521 kts | 142° |
| 2026-05-05 18:48 | 31.21091 | -85.28154 | 33119 ft | 520 kts | 142° |
| 2026-05-05 18:48 | 31.15634 | -85.22602 | 33109 ft | 521 kts | 142° |
| 2026-05-05 18:49 | 31.10144 | -85.17030 | 33100 ft | 521 kts | 142° |
| 2026-05-05 18:49 | 31.04671 | -85.11483 | 33092 ft | 521 kts | 142° |
| 2026-05-05 18:50 | 30.99197 | -85.05939 | 33088 ft | 521 kts | 142° |
| 2026-05-05 18:50 | 30.93763 | -85.00447 | 33089 ft | 520 kts | 142° |
| 2026-05-05 18:51 | 30.88288 | -84.94924 | 33075 ft | 519 kts | 142° |
| 2026-05-05 18:51 | 30.82829 | -84.89425 | 33070 ft | 519 kts | 142° |
| 2026-05-05 18:52 | 30.77355 | -84.83914 | 33085 ft | 519 kts | 142° |
| 2026-05-05 18:52 | 30.71891 | -84.78434 | 33106 ft | 518 kts | 142° |
| 2026-05-05 18:53 | 30.66426 | -84.72966 | 33099 ft | 519 kts | 142° |
| 2026-05-05 18:53 | 30.60953 | -84.67493 | 33102 ft | 518 kts | 142° |
| 2026-05-05 18:54 | 30.55503 | -84.62053 | 33101 ft | 518 kts | 142° |
| 2026-05-05 18:54 | 30.50061 | -84.56632 | 33108 ft | 518 kts | 142° |
| 2026-05-05 18:55 | 30.44594 | -84.51188 | 33109 ft | 517 kts | 142° |
| 2026-05-05 18:55 | 30.39134 | -84.45763 | 33095 ft | 517 kts | 142° |
| 2026-05-05 18:56 | 30.33659 | -84.40331 | 33078 ft | 517 kts | 142° |
| 2026-05-05 18:56 | 30.28213 | -84.34925 | 33080 ft | 516 kts | 142° |
| 2026-05-05 18:57 | 30.22740 | -84.29500 | 33076 ft | 517 kts | 142° |
| 2026-05-05 18:57 | 30.17275 | -84.24096 | 33065 ft | 516 kts | 142° |
| 2026-05-05 18:58 | 30.11850 | -84.18730 | 33073 ft | 516 kts | 142° |
| 2026-05-05 18:58 | 30.06405 | -84.13354 | 33089 ft | 516 kts | 142° |
| 2026-05-05 18:59 | 30.00946 | -84.07972 | 33086 ft | 516 kts | 142° |
| 2026-05-05 18:59 | 29.95487 | -84.02609 | 33090 ft | 515 kts | 143° |
| 2026-05-05 19:00 | 29.90042 | -83.97260 | 33093 ft | 516 kts | 142° |
| 2026-05-05 19:00 | 29.84574 | -83.91892 | 33094 ft | 515 kts | 142° |
| 2026-05-05 19:01 | 29.78733 | -83.87250 | 33090 ft | 509 kts | 155° |
| 2026-05-05 19:01 | 29.72543 | -83.83301 | 33094 ft | 508 kts | 156° |
| 2026-05-05 19:02 | 29.66368 | -83.79348 | 33090 ft | 509 kts | 155° |
| 2026-05-05 19:02 | 29.60176 | -83.75363 | 33099 ft | 509 kts | 155° |
| 2026-05-05 19:03 | 29.53975 | -83.71376 | 33097 ft | 510 kts | 155° |
| 2026-05-05 19:03 | 29.47838 | -83.67435 | 32964 ft | 498 kts | 155° |
| 2026-05-05 19:04 | 29.44852 | -83.65515 | 32705 ft | 487 kts | 155° |
| 2026-05-05 19:04 | 29.41915 | -83.63631 | 32260 ft | 480 kts | 155° |
| 2026-05-05 19:04 | 29.39018 | -83.61780 | 31739 ft | 475 kts | 155° |
| 2026-05-05 19:04 | 29.36144 | -83.59941 | 31227 ft | 470 kts | 155° |
| 2026-05-05 19:05 | 29.33307 | -83.58126 | 30730 ft | 465 kts | 155° |
| 2026-05-05 19:05 | 29.30493 | -83.56326 | 30231 ft | 460 kts | 155° |
| 2026-05-05 19:05 | 29.27720 | -83.54555 | 29765 ft | 455 kts | 155° |
| 2026-05-05 19:05 | 29.24970 | -83.52801 | 29265 ft | 450 kts | 155° |
| 2026-05-05 19:06 | 29.22246 | -83.51064 | 28767 ft | 445 kts | 155° |
| 2026-05-05 19:06 | 29.19548 | -83.49347 | 28251 ft | 442 kts | 155° |
| 2026-05-05 19:06 | 29.16877 | -83.47648 | 27745 ft | 438 kts | 155° |
| 2026-05-05 19:06 | 29.14222 | -83.45959 | 27251 ft | 434 kts | 155° |
| 2026-05-05 19:07 | 29.11595 | -83.44292 | 26748 ft | 430 kts | 155° |
| 2026-05-05 19:07 | 29.08996 | -83.42640 | 26269 ft | 426 kts | 155° |
| 2026-05-05 19:07 | 29.06416 | -83.41003 | 25766 ft | 422 kts | 155° |
| 2026-05-05 19:07 | 29.03855 | -83.39379 | 25267 ft | 418 kts | 155° |
| 2026-05-05 19:08 | 29.01358 | -83.37796 | 24795 ft | 415 kts | 155° |
| 2026-05-05 19:08 | 28.98843 | -83.36200 | 24306 ft | 411 kts | 155° |
| 2026-05-05 19:08 | 28.96358 | -83.34623 | 23845 ft | 407 kts | 155° |
| 2026-05-05 19:08 | 28.93892 | -83.33060 | 23368 ft | 403 kts | 155° |
| 2026-05-05 19:09 | 28.91454 | -83.31516 | 22902 ft | 400 kts | 155° |
| 2026-05-05 19:09 | 28.89038 | -83.29988 | 22429 ft | 396 kts | 155° |
| 2026-05-05 19:09 | 28.86633 | -83.28467 | 21961 ft | 392 kts | 155° |
| 2026-05-05 19:09 | 28.84246 | -83.26955 | 21490 ft | 389 kts | 155° |
| 2026-05-05 19:10 | 28.81898 | -83.25471 | 21033 ft | 385 kts | 155° |
| 2026-05-05 19:10 | 28.79554 | -83.23994 | 20570 ft | 382 kts | 155° |
| 2026-05-05 19:10 | 28.77245 | -83.22538 | 20087 ft | 378 kts | 155° |
| 2026-05-05 19:10 | 28.74978 | -83.21105 | 19636 ft | 375 kts | 154° |
| 2026-05-05 19:11 | 28.72709 | -83.19673 | 19173 ft | 372 kts | 154° |
| 2026-05-05 19:11 | 28.70455 | -83.18251 | 18714 ft | 369 kts | 154° |
| 2026-05-05 19:11 | 28.68216 | -83.16839 | 18257 ft | 365 kts | 154° |
| 2026-05-05 19:11 | 28.66001 | -83.15444 | 17795 ft | 362 kts | 154° |
| 2026-05-05 19:12 | 28.63811 | -83.14065 | 17342 ft | 358 kts | 154° |
| 2026-05-05 19:12 | 28.61637 | -83.12696 | 16890 ft | 355 kts | 154° |
| 2026-05-05 19:12 | 28.59473 | -83.11335 | 16454 ft | 352 kts | 154° |
| 2026-05-05 19:12 | 28.57344 | -83.09995 | 16024 ft | 348 kts | 154° |
| 2026-05-05 19:13 | 28.55237 | -83.08667 | 15589 ft | 344 kts | 154° |
| 2026-05-05 19:13 | 28.53141 | -83.07375 | 15149 ft | 340 kts | 157° |
| 2026-05-05 19:13 | 28.51042 | -83.06149 | 14684 ft | 338 kts | 155° |
| 2026-05-05 19:13 | 28.48975 | -83.04889 | 14228 ft | 336 kts | 154° |
| 2026-05-05 19:14 | 28.46940 | -83.03606 | 13814 ft | 332 kts | 154° |
| 2026-05-05 19:14 | 28.44935 | -83.02332 | 13408 ft | 328 kts | 154° |
| 2026-05-05 19:14 | 28.42954 | -83.01070 | 12987 ft | 325 kts | 154° |
| 2026-05-05 19:14 | 28.40989 | -82.99823 | 12568 ft | 322 kts | 154° |
| 2026-05-05 19:15 | 28.39046 | -82.98592 | 12150 ft | 318 kts | 154° |
| 2026-05-05 19:15 | 28.37128 | -82.97375 | 11713 ft | 315 kts | 154° |
| 2026-05-05 19:15 | 28.35220 | -82.96169 | 11310 ft | 312 kts | 154° |
| 2026-05-05 19:15 | 28.33333 | -82.94976 | 10906 ft | 308 kts | 153° |
| 2026-05-05 19:16 | 28.31467 | -82.93798 | 10506 ft | 305 kts | 153° |
| 2026-05-05 19:16 | 28.29641 | -82.92608 | 10096 ft | 302 kts | 148° |
| 2026-05-05 19:16 | 28.28142 | -82.91011 | 9676 ft | 301 kts | 125° |
| 2026-05-05 19:16 | 28.27337 | -82.88817 | 9242 ft | 299 kts | 99° |
| 2026-05-05 19:17 | 28.27265 | -82.86511 | 8866 ft | 295 kts | 88° |
| 2026-05-05 19:17 | 28.27371 | -82.84197 | 8465 ft | 291 kts | 87° |
| 2026-05-05 19:17 | 28.27473 | -82.81917 | 8065 ft | 289 kts | 88° |
| 2026-05-05 19:17 | 28.27560 | -82.79644 | 7652 ft | 286 kts | 88° |
| 2026-05-05 19:18 | 28.27633 | -82.77395 | 7242 ft | 284 kts | 88° |
| 2026-05-05 19:18 | 28.27702 | -82.75163 | 6837 ft | 282 kts | 88° |
| 2026-05-05 19:18 | 28.27765 | -82.72961 | 6442 ft | 280 kts | 88° |
| 2026-05-05 19:18 | 28.27826 | -82.70750 | 6042 ft | 278 kts | 89° |
| 2026-05-05 19:19 | 28.27884 | -82.68574 | 5640 ft | 276 kts | 89° |
| 2026-05-05 19:19 | 28.27939 | -82.66400 | 5252 ft | 274 kts | 89° |
| 2026-05-05 19:19 | 28.27992 | -82.64272 | 5011 ft | 266 kts | 89° |
| 2026-05-05 19:19 | 28.28044 | -82.62233 | 4856 ft | 256 kts | 89° |
| 2026-05-05 19:20 | 28.28067 | -82.60249 | 4634 ft | 249 kts | 96° |
| 2026-05-05 19:20 | 28.27536 | -82.58413 | 4341 ft | 245 kts | 123° |
| 2026-05-05 19:20 | 28.26358 | -82.57059 | 3948 ft | 242 kts | 148° |
| 2026-05-05 19:20 | 28.24777 | -82.56424 | 3521 ft | 242 kts | 173° |
| 2026-05-05 19:21 | 28.23105 | -82.56591 | 3128 ft | 244 kts | 192° |
| 2026-05-05 19:21 | 28.21434 | -82.56805 | 2959 ft | 242 kts | 170° |
| 2026-05-05 19:21 | 28.19906 | -82.56220 | 2975 ft | 234 kts | 150° |
| 2026-05-05 19:21 | 28.18534 | -82.55313 | 2947 ft | 212 kts | 148° |
| 2026-05-05 19:22 | 28.17283 | -82.54462 | 2952 ft | 204 kts | 148° |
| 2026-05-05 19:22 | 28.16134 | -82.53689 | 3006 ft | 182 kts | 146° |
| 2026-05-05 19:22 | 28.15075 | -82.53006 | 2971 ft | 169 kts | 154° |
| 2026-05-05 19:22 | 28.13998 | -82.52615 | 2927 ft | 159 kts | 165° |
| 2026-05-05 19:23 | 28.12966 | -82.52460 | 2817 ft | 146 kts | 173° |
| 2026-05-05 19:23 | 28.11975 | -82.52412 | 2604 ft | 144 kts | 177° |
| 2026-05-05 19:23 | 28.10966 | -82.52410 | 2410 ft | 143 kts | 179° |
| 2026-05-05 19:23 | 28.09983 | -82.52435 | 2248 ft | 143 kts | 180° |
| 2026-05-05 19:24 | 28.08980 | -82.52466 | 2052 ft | 142 kts | 181° |
| 2026-05-05 19:24 | 28.08007 | -82.52499 | 1851 ft | 141 kts | 182° |
| 2026-05-05 19:24 | 28.07026 | -82.52533 | 1682 ft | 141 kts | 182° |
| 2026-05-05 19:24 | 28.06046 | -82.52567 | 1484 ft | 141 kts | 182° |
| 2026-05-05 19:25 | 28.05064 | -82.52600 | 1304 ft | 141 kts | 184° |
| 2026-05-05 19:25 | 28.04079 | -82.52634 | 1130 ft | 141 kts | 184° |
| 2026-05-05 19:25 | 28.03099 | -82.52668 | 915 ft | 142 kts | 184° |
| 2026-05-05 19:25 | 28.02123 | -82.52697 | 723 ft | 146 kts | 184° |
| 2026-05-05 19:26 | 28.01072 | -82.52739 | 500 ft | 148 kts | 184° |
| 2026-05-05 19:26 | 28.00042 | -82.52778 | 332 ft | 146 kts | 183° |
| 2026-05-05 19:26 | 27.99020 | -82.52816 | 146 ft | 153 kts | 183° |
| 2026-05-05 19:26 | 27.97973 | -82.52841 | 47 ft | 144 kts | 183° |
| 2026-05-05 19:27 | 27.97059 | -82.52882 | 41 ft | 108 kts | 181° |
| 2026-05-05 19:27 | 27.96557 | -82.52899 | 42 ft | 34 kts | 181° |
| 2026-05-05 19:27 | 27.96457 | -82.52907 | 41 ft | 6 kts | 229° |
| 2026-05-05 19:27 | 27.96442 | -82.52963 | 44 ft | 9 kts | 257° |
| 2026-05-05 19:28 | 27.96466 | -82.53014 | 46 ft | 9 kts | 6° |
| 2026-05-05 19:28 | 27.96538 | -82.53012 | 46 ft | 12 kts | 358° |
| 2026-05-05 19:28 | 27.96627 | -82.53016 | 47 ft | 14 kts | 358° |
| 2026-05-05 19:28 | 27.96729 | -82.53016 | 47 ft | 15 kts | 3° |
| 2026-05-05 19:29 | 27.96845 | -82.53010 | 46 ft | 18 kts | 2° |
| 2026-05-05 19:29 | 27.96970 | -82.53006 | 43 ft | 19 kts | 1° |
| 2026-05-05 19:29 | 27.97107 | -82.53002 | 43 ft | 20 kts | 1° |
| 2026-05-05 19:29 | 27.97256 | -82.52997 | 47 ft | 22 kts | 2° |
| 2026-05-05 19:30 | 27.97388 | -82.52993 | 47 ft | 18 kts | 1° |
| 2026-05-05 19:30 | 27.97503 | -82.52991 | 47 ft | 15 kts | 1° |
| 2026-05-05 19:30 | 27.97534 | -82.53011 | 48 ft | 6 kts | 291° |
| 2026-05-05 19:30 | 27.97545 | -82.53042 | 48 ft | 7 kts | 296° |
| 2026-05-05 19:31 | 27.97603 | -82.53088 | 48 ft | 9 kts | 284° |
| 2026-05-05 19:31 | 27.97611 | -82.53132 | 48 ft | 0 kts | 264° |
| 2026-05-05 19:31 | 27.97610 | -82.53135 | 48 ft | 1 kts | 265° |
| 2026-05-05 19:31 | 27.97610 | -82.53150 | 48 ft | 2 kts | 272° |
| 2026-05-05 19:32 | 27.97611 | -82.53156 | 48 ft | 0 kts | 271° |
| 2026-05-05 19:32 | 27.97611 | -82.53158 | 48 ft | 0 kts | 271° |